createdAt,value
2022-10-02T00:00:17.913Z,94.40
2022-10-02T00:05:52.202Z,94.30
2022-10-02T00:11:25.757Z,94.30
2022-10-02T00:16:59.652Z,94.60
2022-10-02T00:28:15.897Z,94.30
2022-10-02T00:34:27.267Z,94.40
2022-10-02T00:40:37.478Z,94.40
2022-10-02T00:46:32.608Z,94.40
2022-10-02T00:52:18.580Z,94.60
2022-10-02T00:58:09.103Z,94.70
2022-10-02T01:03:53.388Z,94.80
2022-10-02T01:09:24.659Z,95.00
2022-10-02T01:25:53.196Z,95.10
2022-10-02T01:31:21.963Z,95.10
2022-10-02T01:48:01.980Z,95.30
2022-10-02T01:53:45.349Z,95.40
2022-10-02T01:59:32.896Z,95.40
2022-10-02T02:05:24.826Z,95.40
2022-10-02T02:11:02.119Z,95.50
2022-10-02T02:16:47.448Z,95.50
2022-10-02T02:22:29.104Z,95.60
2022-10-02T02:28:06.884Z,95.80
2022-10-02T02:33:48.237Z,95.80
2022-10-02T02:39:27.070Z,96.00
2022-10-02T02:45:20.349Z,95.90
2022-10-02T02:51:17.511Z,95.90
2022-10-02T02:56:48.506Z,95.90
2022-10-02T03:07:55.074Z,96.00
2022-10-02T03:13:47.915Z,96.10
2022-10-02T03:19:41.118Z,96.20
2022-10-02T03:25:32.136Z,96.20
2022-10-02T03:31:01.081Z,96.20
2022-10-02T03:36:29.002Z,96.20
2022-10-02T03:41:56.928Z,96.40
2022-10-02T03:47:24.764Z,96.40
2022-10-02T03:52:53.828Z,96.40
2022-10-02T03:58:22.410Z,96.50
2022-10-02T04:03:57.502Z,96.50
2022-10-02T04:09:33.698Z,96.50
2022-10-02T04:15:15.085Z,96.50
2022-10-02T04:20:55.727Z,96.50
2022-10-02T04:26:34.371Z,96.50
2022-10-02T04:32:14.891Z,96.60
2022-10-02T04:38:16.607Z,96.60
2022-10-02T04:44:30.798Z,96.60
2022-10-02T04:50:38.319Z,96.60
2022-10-02T04:56:18.259Z,96.50
2022-10-02T05:02:10.269Z,96.70
2022-10-02T05:07:49.624Z,96.60
2022-10-02T05:13:42.571Z,96.60
2022-10-02T05:19:53.282Z,96.60
2022-10-02T05:25:35.688Z,96.60
2022-10-02T05:31:21.621Z,96.60
2022-10-02T05:36:59.217Z,96.70
2022-10-02T05:42:41.110Z,96.70
2022-10-02T05:48:30.767Z,96.60
2022-10-02T05:54:06.166Z,96.60
2022-10-02T05:59:48.903Z,96.70
2022-10-02T06:05:30.189Z,96.60
2022-10-02T06:11:07.367Z,96.70
2022-10-02T06:16:43.847Z,96.70
2022-10-02T06:22:19.719Z,96.70
2022-10-02T06:27:55.499Z,96.70
2022-10-02T06:33:26.348Z,96.80
2022-10-02T06:39:18.859Z,96.80
2022-10-02T06:45:12.910Z,96.80
2022-10-02T06:51:17.186Z,96.80
2022-10-02T06:57:08.384Z,96.80
2022-10-02T07:03:18.915Z,97.00
2022-10-02T07:09:01.670Z,96.90
2022-10-02T07:15:22.161Z,97.00
2022-10-02T07:21:01.798Z,97.10
2022-10-02T07:27:12.610Z,97.10
2022-10-02T07:33:04.792Z,97.20
2022-10-02T07:38:55.117Z,97.30
2022-10-02T07:45:02.298Z,97.40
2022-10-02T07:50:54.805Z,97.60
2022-10-02T07:56:23.557Z,97.50
2022-10-02T08:01:52.595Z,97.60
2022-10-02T08:07:20.851Z,97.60
2022-10-02T08:13:00.819Z,97.60
2022-10-02T08:18:38.149Z,97.60
2022-10-02T08:24:25.187Z,97.70
2022-10-02T08:30:03.109Z,97.60
2022-10-02T08:35:59.696Z,97.70
2022-10-02T08:42:33.966Z,97.70
2022-10-02T08:48:56.027Z,97.70
2022-10-02T08:54:58.760Z,97.50
2022-10-02T09:06:43.225Z,97.50
2022-10-02T09:12:42.665Z,97.70
2022-10-02T09:19:01.683Z,97.70
2022-10-02T09:25:08.741Z,97.50
2022-10-02T09:36:51.258Z,98.40
2022-10-02T09:42:53.790Z,97.40
2022-10-02T09:48:45.318Z,97.60
2022-10-02T09:55:00.155Z,97.40
2022-10-02T10:06:26.004Z,97.40
2022-10-02T10:12:12.331Z,97.40
2022-10-02T10:18:20.992Z,97.40
2022-10-02T10:24:23.328Z,97.40
2022-10-02T10:30:27.614Z,97.50
2022-10-02T10:42:27.777Z,97.30
2022-10-02T10:48:23.303Z,97.20
2022-10-02T10:54:22.856Z,97.40
2022-10-02T11:05:55.479Z,97.30
2022-10-02T11:11:58.212Z,97.00
2022-10-02T11:17:48.391Z,97.00
2022-10-02T11:23:41.634Z,96.80
2022-10-02T11:29:51.099Z,96.70
2022-10-02T11:35:28.033Z,96.80
2022-10-02T11:41:09.111Z,96.10
2022-10-02T11:47:07.663Z,95.30
2022-10-02T11:53:05.052Z,95.20
2022-10-02T11:58:54.596Z,94.30
2022-10-02T12:05:18.398Z,93.00
2022-10-02T12:11:10.884Z,92.10
2022-10-02T12:17:16.830Z,91.90
2022-10-02T12:23:58.311Z,92.10
2022-10-02T12:30:01.457Z,91.00
2022-10-02T12:36:01.479Z,90.30
2022-10-02T12:41:55.378Z,90.30
2022-10-02T12:48:00.689Z,90.00
2022-10-02T12:54:09.670Z,89.90
2022-10-02T13:00:02.220Z,87.70
2022-10-02T13:06:13.312Z,87.00
2022-10-02T13:12:01.920Z,86.50
2022-10-02T13:17:56.268Z,86.50
2022-10-02T13:23:45.985Z,87.00
2022-10-02T13:29:54.968Z,86.80
2022-10-02T13:35:57.190Z,87.30
2022-10-02T13:42:00.005Z,87.60
2022-10-02T13:48:13.758Z,87.40
2022-10-02T13:54:24.963Z,88.00
2022-10-02T14:00:23.695Z,88.10
2022-10-02T14:06:33.450Z,88.60
2022-10-02T14:12:29.313Z,88.50
2022-10-02T14:18:14.863Z,89.20
2022-10-02T14:24:50.893Z,89.30
2022-10-02T14:30:46.519Z,89.70
2022-10-02T14:36:30.949Z,90.00
2022-10-02T14:43:00.212Z,90.40
2022-10-02T14:48:46.235Z,90.40
2022-10-02T14:55:10.384Z,90.80
2022-10-02T15:01:02.306Z,91.00
2022-10-02T15:06:51.243Z,91.00
2022-10-02T15:12:25.492Z,91.10
2022-10-02T15:18:17.438Z,91.40
2022-10-02T15:23:51.749Z,91.50
2022-10-02T15:29:54.549Z,91.80
2022-10-02T15:36:09.734Z,91.80
2022-10-02T15:47:49.287Z,92.10
2022-10-02T15:53:32.805Z,92.20
2022-10-02T15:59:21.628Z,92.30
2022-10-02T16:05:35.356Z,92.50
2022-10-02T16:11:38.361Z,92.70
2022-10-02T16:17:14.479Z,92.70
2022-10-02T16:23:02.904Z,92.70
2022-10-02T16:29:05.934Z,93.00
2022-10-02T16:35:11.274Z,93.10
2022-10-02T16:41:09.673Z,93.10
2022-10-02T16:46:55.733Z,93.20
2022-10-02T16:52:47.502Z,93.30
2022-10-02T16:58:31.195Z,93.70
2022-10-02T17:04:41.561Z,93.60
2022-10-02T17:10:37.591Z,93.70
2022-10-02T17:16:11.205Z,93.70
2022-10-02T17:21:46.288Z,94.10
2022-10-02T17:27:33.557Z,94.10
2022-10-02T17:33:11.696Z,94.30
2022-10-02T17:39:34.091Z,94.30
2022-10-02T17:45:26.663Z,94.40
2022-10-02T17:57:59.039Z,94.60
2022-10-02T18:03:41.399Z,94.80
2022-10-02T18:09:44.575Z,94.90
2022-10-02T18:15:42.786Z,95.10
2022-10-02T18:27:30.363Z,95.40
2022-10-02T18:33:25.263Z,95.70
2022-10-02T18:45:07.141Z,95.80
2022-10-02T18:50:48.206Z,95.90
2022-10-02T18:56:40.588Z,95.80
2022-10-02T19:03:26.986Z,95.90
2022-10-02T19:09:09.840Z,96.00
2022-10-02T19:14:46.130Z,96.40
2022-10-02T19:20:45.877Z,96.20
2022-10-02T19:26:41.305Z,96.40
2022-10-02T19:32:42.544Z,96.50
2022-10-02T19:38:36.215Z,96.40
2022-10-02T19:44:42.215Z,96.50
2022-10-02T19:50:28.120Z,96.50
2022-10-02T19:56:05.906Z,96.80
2022-10-02T20:01:55.910Z,96.80
2022-10-02T20:07:36.533Z,96.80
2022-10-02T20:13:28.216Z,96.90
2022-10-02T20:24:36.105Z,97.00
2022-10-02T20:30:12.968Z,97.20
2022-10-02T20:35:47.136Z,97.20
2022-10-02T20:41:27.424Z,97.10
2022-10-02T20:47:33.345Z,97.30
2022-10-02T20:53:28.855Z,97.30
2022-10-02T20:59:52.482Z,97.20
2022-10-02T21:05:45.215Z,97.20
2022-10-02T21:11:50.769Z,97.30
2022-10-02T21:17:58.584Z,97.20
2022-10-02T21:24:15.031Z,97.30
2022-10-02T21:30:11.837Z,97.30
2022-10-02T21:36:09.934Z,97.40
2022-10-02T21:42:35.206Z,97.30
2022-10-02T21:48:34.496Z,97.40
2022-10-02T21:54:39.309Z,97.40
2022-10-02T22:00:24.471Z,97.40
2022-10-02T22:06:25.894Z,97.50
2022-10-02T22:12:04.545Z,97.60
2022-10-02T22:18:14.167Z,97.60
2022-10-02T22:24:22.298Z,97.60
2022-10-02T22:29:54.181Z,97.70
2022-10-02T22:35:44.932Z,97.60
2022-10-02T22:41:38.520Z,97.80
2022-10-02T22:47:35.149Z,97.80
2022-10-02T22:53:31.196Z,97.70
2022-10-02T22:59:16.858Z,97.70
2022-10-02T23:04:50.590Z,97.90
2022-10-02T23:10:46.777Z,98.30
2022-10-02T23:16:52.140Z,98.10
2022-10-02T23:22:40.919Z,98.20
2022-10-02T23:28:27.118Z,98.20
2022-10-02T23:34:41.566Z,98.20
2022-10-02T23:40:47.918Z,98.20
2022-10-02T23:46:27.337Z,98.20
2022-10-02T23:52:53.106Z,98.20
2022-10-02T23:59:06.888Z,98.20
